sensor_id;sensor_type;location;lat;lon;timestamp;P1;durP1;ratioP1;P2;durP2;ratioP2
48205;SDS011;33995;48.202;16.260;2023-12-20T00:01:07;24.40;;;19.07;;
48205;SDS011;33995;48.202;16.260;2023-12-20T00:03:35;24.13;;;19.77;;
48205;SDS011;33995;48.202;16.260;2023-12-20T00:06:08;23.10;;;19.37;;
48205;SDS011;33995;48.202;16.260;2023-12-20T00:08:36;23.47;;;20.00;;
48205;SDS011;33995;48.202;16.260;2023-12-20T00:11:03;28.77;;;21.40;;
48205;SDS011;33995;48.202;16.260;2023-12-20T00:13:30;30.83;;;23.40;;
48205;SDS011;33995;48.202;16.260;2023-12-20T00:15:56;27.53;;;22.00;;
48205;SDS011;33995;48.202;16.260;2023-12-20T00:18:24;29.90;;;22.03;;
48205;SDS011;33995;48.202;16.260;2023-12-20T00:20:51;26.17;;;21.20;;
48205;SDS011;33995;48.202;16.260;2023-12-20T00:23:17;22.90;;;19.13;;
48205;SDS011;33995;48.202;16.260;2023-12-20T00:25:44;23.00;;;18.93;;
48205;SDS011;33995;48.202;16.260;2023-12-20T00:28:11;23.87;;;18.77;;
48205;SDS011;33995;48.202;16.260;2023-12-20T00:30:39;22.37;;;18.67;;
48205;SDS011;33995;48.202;16.260;2023-12-20T00:33:07;22.00;;;17.80;;
48205;SDS011;33995;48.202;16.260;2023-12-20T00:35:35;22.13;;;18.27;;
48205;SDS011;33995;48.202;16.260;2023-12-20T00:38:02;23.70;;;18.97;;
48205;SDS011;33995;48.202;16.260;2023-12-20T00:40:31;25.17;;;18.80;;
48205;SDS011;33995;48.202;16.260;2023-12-20T00:42:59;22.37;;;18.40;;
48205;SDS011;33995;48.202;16.260;2023-12-20T00:45:26;23.03;;;19.07;;
48205;SDS011;33995;48.202;16.260;2023-12-20T00:47:53;23.07;;;18.07;;
48205;SDS011;33995;48.202;16.260;2023-12-20T00:50:21;22.73;;;18.63;;
48205;SDS011;33995;48.202;16.260;2023-12-20T00:52:51;22.90;;;18.60;;
48205;SDS011;33995;48.202;16.260;2023-12-20T00:55:18;22.07;;;17.67;;
48205;SDS011;33995;48.202;16.260;2023-12-20T00:57:46;22.50;;;18.10;;
48205;SDS011;33995;48.202;16.260;2023-12-20T01:00:14;20.67;;;17.30;;
48205;SDS011;33995;48.202;16.260;2023-12-20T01:02:41;22.80;;;16.97;;
48205;SDS011;33995;48.202;16.260;2023-12-20T01:05:08;21.00;;;16.80;;
48205;SDS011;33995;48.202;16.260;2023-12-20T01:07:35;20.70;;;17.13;;
48205;SDS011;33995;48.202;16.260;2023-12-20T01:10:02;21.40;;;17.00;;
48205;SDS011;33995;48.202;16.260;2023-12-20T01:12:30;22.20;;;16.73;;
48205;SDS011;33995;48.202;16.260;2023-12-20T01:14:58;20.20;;;15.97;;
48205;SDS011;33995;48.202;16.260;2023-12-20T01:17:25;19.97;;;16.03;;
48205;SDS011;33995;48.202;16.260;2023-12-20T01:19:53;19.97;;;16.03;;
48205;SDS011;33995;48.202;16.260;2023-12-20T01:22:21;20.83;;;15.93;;
48205;SDS011;33995;48.202;16.260;2023-12-20T01:24:48;21.10;;;16.07;;
48205;SDS011;33995;48.202;16.260;2023-12-20T01:27:16;20.87;;;16.30;;
48205;SDS011;33995;48.202;16.260;2023-12-20T01:29:44;18.90;;;15.37;;
48205;SDS011;33995;48.202;16.260;2023-12-20T01:32:12;20.70;;;16.53;;
48205;SDS011;33995;48.202;16.260;2023-12-20T01:34:39;19.83;;;15.77;;
48205;SDS011;33995;48.202;16.260;2023-12-20T01:37:07;20.97;;;16.30;;
48205;SDS011;33995;48.202;16.260;2023-12-20T01:39:35;20.40;;;16.63;;
48205;SDS011;33995;48.202;16.260;2023-12-20T01:42:02;23.47;;;17.43;;
48205;SDS011;33995;48.202;16.260;2023-12-20T01:44:30;21.60;;;17.67;;
48205;SDS011;33995;48.202;16.260;2023-12-20T01:46:58;20.20;;;17.63;;
48205;SDS011;33995;48.202;16.260;2023-12-20T01:49:25;22.77;;;18.80;;
48205;SDS011;33995;48.202;16.260;2023-12-20T01:51:53;24.47;;;18.57;;
48205;SDS011;33995;48.202;16.260;2023-12-20T01:54:21;25.87;;;20.37;;
48205;SDS011;33995;48.202;16.260;2023-12-20T01:56:49;25.60;;;19.70;;
48205;SDS011;33995;48.202;16.260;2023-12-20T01:59:17;24.83;;;19.47;;
48205;SDS011;33995;48.202;16.260;2023-12-20T02:01:46;22.90;;;18.17;;
48205;SDS011;33995;48.202;16.260;2023-12-20T02:04:13;26.00;;;20.13;;
48205;SDS011;33995;48.202;16.260;2023-12-20T02:06:41;33.40;;;26.57;;
48205;SDS011;33995;48.202;16.260;2023-12-20T02:09:10;32.23;;;25.17;;
48205;SDS011;33995;48.202;16.260;2023-12-20T02:11:37;37.63;;;29.00;;
48205;SDS011;33995;48.202;16.260;2023-12-20T02:14:05;38.73;;;30.27;;
48205;SDS011;33995;48.202;16.260;2023-12-20T02:16:31;36.10;;;28.77;;
48205;SDS011;33995;48.202;16.260;2023-12-20T02:18:59;36.63;;;28.03;;
48205;SDS011;33995;48.202;16.260;2023-12-20T02:21:31;15.90;;;13.03;;
48205;SDS011;33995;48.202;16.260;2023-12-20T02:23:59;12.60;;;10.80;;
48205;SDS011;33995;48.202;16.260;2023-12-20T02:26:26;7.23;;;5.87;;
48205;SDS011;33995;48.202;16.260;2023-12-20T02:28:53;4.50;;;3.70;;
48205;SDS011;33995;48.202;16.260;2023-12-20T02:31:24;2.93;;;2.63;;
48205;SDS011;33995;48.202;16.260;2023-12-20T02:33:51;3.20;;;2.77;;
48205;SDS011;33995;48.202;16.260;2023-12-20T02:36:19;3.30;;;2.60;;
48205;SDS011;33995;48.202;16.260;2023-12-20T02:38:46;3.10;;;2.50;;
48205;SDS011;33995;48.202;16.260;2023-12-20T02:41:14;2.70;;;2.40;;
48205;SDS011;33995;48.202;16.260;2023-12-20T02:43:43;2.97;;;2.50;;
48205;SDS011;33995;48.202;16.260;2023-12-20T02:46:10;3.17;;;2.40;;
48205;SDS011;33995;48.202;16.260;2023-12-20T02:48:38;3.27;;;2.70;;
48205;SDS011;33995;48.202;16.260;2023-12-20T02:51:05;2.73;;;2.53;;
48205;SDS011;33995;48.202;16.260;2023-12-20T02:53:33;2.80;;;2.50;;
48205;SDS011;33995;48.202;16.260;2023-12-20T02:56:00;3.87;;;2.83;;
48205;SDS011;33995;48.202;16.260;2023-12-20T02:58:28;2.63;;;2.43;;
48205;SDS011;33995;48.202;16.260;2023-12-20T03:00:55;3.57;;;3.07;;
48205;SDS011;33995;48.202;16.260;2023-12-20T03:03:23;3.03;;;2.73;;
48205;SDS011;33995;48.202;16.260;2023-12-20T03:05:50;3.10;;;2.80;;
48205;SDS011;33995;48.202;16.260;2023-12-20T03:08:17;3.30;;;3.00;;
48205;SDS011;33995;48.202;16.260;2023-12-20T03:10:46;3.30;;;2.83;;
48205;SDS011;33995;48.202;16.260;2023-12-20T03:13:14;2.97;;;2.67;;
48205;SDS011;33995;48.202;16.260;2023-12-20T03:15:42;3.10;;;2.80;;
48205;SDS011;33995;48.202;16.260;2023-12-20T03:18:10;4.20;;;2.90;;
48205;SDS011;33995;48.202;16.260;2023-12-20T03:20:38;3.30;;;2.90;;
48205;SDS011;33995;48.202;16.260;2023-12-20T03:23:05;3.10;;;2.80;;
48205;SDS011;33995;48.202;16.260;2023-12-20T03:25:33;3.23;;;2.70;;
48205;SDS011;33995;48.202;16.260;2023-12-20T03:28:00;3.30;;;2.93;;
48205;SDS011;33995;48.202;16.260;2023-12-20T03:30:28;3.40;;;3.07;;
48205;SDS011;33995;48.202;16.260;2023-12-20T03:32:56;4.43;;;3.10;;
48205;SDS011;33995;48.202;16.260;2023-12-20T03:35:23;3.33;;;3.00;;
48205;SDS011;33995;48.202;16.260;2023-12-20T03:37:50;3.13;;;2.80;;
48205;SDS011;33995;48.202;16.260;2023-12-20T03:40:18;3.20;;;2.80;;
48205;SDS011;33995;48.202;16.260;2023-12-20T03:42:45;4.00;;;3.10;;
48205;SDS011;33995;48.202;16.260;2023-12-20T03:45:14;5.77;;;3.20;;
48205;SDS011;33995;48.202;16.260;2023-12-20T03:47:41;3.63;;;2.90;;
48205;SDS011;33995;48.202;16.260;2023-12-20T03:50:10;3.40;;;3.03;;
48205;SDS011;33995;48.202;16.260;2023-12-20T03:52:37;3.53;;;3.13;;
48205;SDS011;33995;48.202;16.260;2023-12-20T03:55:05;3.30;;;3.00;;
48205;SDS011;33995;48.202;16.260;2023-12-20T03:57:32;2.77;;;2.57;;
48205;SDS011;33995;48.202;16.260;2023-12-20T04:00:00;3.33;;;2.83;;
48205;SDS011;33995;48.202;16.260;2023-12-20T04:02:37;5.03;;;3.10;;
48205;SDS011;33995;48.202;16.260;2023-12-20T04:05:05;3.30;;;2.90;;
48205;SDS011;33995;48.202;16.260;2023-12-20T04:07:33;3.00;;;2.70;;
48205;SDS011;33995;48.202;16.260;2023-12-20T04:10:00;3.40;;;2.90;;
48205;SDS011;33995;48.202;16.260;2023-12-20T04:12:28;3.13;;;2.83;;
48205;SDS011;33995;48.202;16.260;2023-12-20T04:14:55;3.10;;;2.80;;
48205;SDS011;33995;48.202;16.260;2023-12-20T04:17:22;3.20;;;2.53;;
48205;SDS011;33995;48.202;16.260;2023-12-20T04:19:50;3.37;;;2.80;;
48205;SDS011;33995;48.202;16.260;2023-12-20T04:22:18;3.93;;;2.80;;
48205;SDS011;33995;48.202;16.260;2023-12-20T04:24:45;3.20;;;2.70;;
48205;SDS011;33995;48.202;16.260;2023-12-20T04:27:12;3.87;;;2.90;;
48205;SDS011;33995;48.202;16.260;2023-12-20T04:29:39;3.83;;;2.80;;
48205;SDS011;33995;48.202;16.260;2023-12-20T04:32:06;3.30;;;2.87;;
48205;SDS011;33995;48.202;16.260;2023-12-20T04:34:33;4.80;;;2.97;;
48205;SDS011;33995;48.202;16.260;2023-12-20T04:37:00;4.30;;;2.90;;
48205;SDS011;33995;48.202;16.260;2023-12-20T04:39:28;3.10;;;2.80;;
48205;SDS011;33995;48.202;16.260;2023-12-20T04:41:55;4.27;;;2.80;;
48205;SDS011;33995;48.202;16.260;2023-12-20T04:44:22;3.60;;;3.30;;
48205;SDS011;33995;48.202;16.260;2023-12-20T04:46:50;3.73;;;3.30;;
48205;SDS011;33995;48.202;16.260;2023-12-20T04:49:17;3.60;;;3.30;;
48205;SDS011;33995;48.202;16.260;2023-12-20T04:51:44;3.50;;;3.20;;
48205;SDS011;33995;48.202;16.260;2023-12-20T04:54:11;4.90;;;3.40;;
48205;SDS011;33995;48.202;16.260;2023-12-20T04:56:38;4.33;;;3.40;;
48205;SDS011;33995;48.202;16.260;2023-12-20T04:59:05;4.00;;;3.60;;
48205;SDS011;33995;48.202;16.260;2023-12-20T05:01:32;5.07;;;3.00;;
48205;SDS011;33995;48.202;16.260;2023-12-20T05:04:00;3.63;;;3.20;;
48205;SDS011;33995;48.202;16.260;2023-12-20T05:06:28;3.70;;;3.13;;
48205;SDS011;33995;48.202;16.260;2023-12-20T05:08:55;4.07;;;3.67;;
48205;SDS011;33995;48.202;16.260;2023-12-20T05:11:22;4.20;;;3.60;;
48205;SDS011;33995;48.202;16.260;2023-12-20T05:13:49;4.73;;;3.47;;
48205;SDS011;33995;48.202;16.260;2023-12-20T05:16:16;4.37;;;3.57;;
48205;SDS011;33995;48.202;16.260;2023-12-20T05:18:47;4.33;;;3.80;;
48205;SDS011;33995;48.202;16.260;2023-12-20T05:21:16;4.47;;;3.57;;
48205;SDS011;33995;48.202;16.260;2023-12-20T05:23:43;4.30;;;3.63;;
48205;SDS011;33995;48.202;16.260;2023-12-20T05:26:10;4.63;;;3.73;;
48205;SDS011;33995;48.202;16.260;2023-12-20T05:28:37;4.87;;;3.87;;
48205;SDS011;33995;48.202;16.260;2023-12-20T05:31:04;4.27;;;3.87;;
48205;SDS011;33995;48.202;16.260;2023-12-20T05:33:32;4.60;;;3.80;;
48205;SDS011;33995;48.202;16.260;2023-12-20T05:36:00;5.10;;;3.83;;
48205;SDS011;33995;48.202;16.260;2023-12-20T05:38:30;4.80;;;3.47;;
48205;SDS011;33995;48.202;16.260;2023-12-20T05:40:57;4.00;;;3.60;;
48205;SDS011;33995;48.202;16.260;2023-12-20T05:43:24;4.33;;;3.47;;
48205;SDS011;33995;48.202;16.260;2023-12-20T05:45:51;4.90;;;3.60;;
48205;SDS011;33995;48.202;16.260;2023-12-20T05:48:18;3.97;;;3.40;;
48205;SDS011;33995;48.202;16.260;2023-12-20T05:50:46;4.00;;;3.60;;
48205;SDS011;33995;48.202;16.260;2023-12-20T05:53:13;4.80;;;3.67;;
48205;SDS011;33995;48.202;16.260;2023-12-20T05:55:41;4.93;;;3.93;;
48205;SDS011;33995;48.202;16.260;2023-12-20T05:58:08;5.67;;;4.20;;
48205;SDS011;33995;48.202;16.260;2023-12-20T06:00:35;7.00;;;3.80;;
48205;SDS011;33995;48.202;16.260;2023-12-20T06:03:02;4.17;;;3.77;;
48205;SDS011;33995;48.202;16.260;2023-12-20T06:05:32;4.83;;;3.57;;
48205;SDS011;33995;48.202;16.260;2023-12-20T06:07:59;4.60;;;3.97;;
48205;SDS011;33995;48.202;16.260;2023-12-20T06:10:29;3.77;;;3.40;;
48205;SDS011;33995;48.202;16.260;2023-12-20T06:12:56;3.90;;;3.50;;
48205;SDS011;33995;48.202;16.260;2023-12-20T06:15:25;4.20;;;3.40;;
48205;SDS011;33995;48.202;16.260;2023-12-20T06:17:52;4.27;;;3.87;;
48205;SDS011;33995;48.202;16.260;2023-12-20T06:20:19;6.07;;;4.23;;
48205;SDS011;33995;48.202;16.260;2023-12-20T06:22:46;6.67;;;4.67;;
48205;SDS011;33995;48.202;16.260;2023-12-20T06:25:13;6.43;;;4.63;;
48205;SDS011;33995;48.202;16.260;2023-12-20T06:27:40;5.17;;;3.43;;
48205;SDS011;33995;48.202;16.260;2023-12-20T06:30:08;3.90;;;3.50;;
48205;SDS011;33995;48.202;16.260;2023-12-20T06:32:35;3.43;;;3.13;;
48205;SDS011;33995;48.202;16.260;2023-12-20T06:35:04;4.47;;;3.67;;
48205;SDS011;33995;48.202;16.260;2023-12-20T06:37:31;4.63;;;3.67;;
48205;SDS011;33995;48.202;16.260;2023-12-20T06:39:59;4.77;;;3.53;;
48205;SDS011;33995;48.202;16.260;2023-12-20T06:42:27;3.83;;;3.47;;
48205;SDS011;33995;48.202;16.260;2023-12-20T06:44:56;5.47;;;3.30;;
48205;SDS011;33995;48.202;16.260;2023-12-20T06:47:23;3.67;;;3.27;;
48205;SDS011;33995;48.202;16.260;2023-12-20T06:49:51;4.17;;;3.37;;
48205;SDS011;33995;48.202;16.260;2023-12-20T06:52:18;3.90;;;3.20;;
48205;SDS011;33995;48.202;16.260;2023-12-20T06:54:45;7.80;;;3.77;;
48205;SDS011;33995;48.202;16.260;2023-12-20T06:57:12;3.87;;;3.40;;
48205;SDS011;33995;48.202;16.260;2023-12-20T06:59:42;3.47;;;3.17;;
48205;SDS011;33995;48.202;16.260;2023-12-20T07:02:10;3.60;;;3.23;;
48205;SDS011;33995;48.202;16.260;2023-12-20T07:04:41;4.47;;;3.73;;
48205;SDS011;33995;48.202;16.260;2023-12-20T07:07:08;5.03;;;3.60;;
48205;SDS011;33995;48.202;16.260;2023-12-20T07:09:37;4.77;;;3.70;;
48205;SDS011;33995;48.202;16.260;2023-12-20T07:12:05;3.90;;;3.37;;
48205;SDS011;33995;48.202;16.260;2023-12-20T07:14:32;4.30;;;3.63;;
48205;SDS011;33995;48.202;16.260;2023-12-20T07:16:59;4.33;;;3.93;;
48205;SDS011;33995;48.202;16.260;2023-12-20T07:19:26;3.87;;;3.47;;
48205;SDS011;33995;48.202;16.260;2023-12-20T07:21:53;3.60;;;3.30;;
48205;SDS011;33995;48.202;16.260;2023-12-20T07:24:21;4.20;;;3.60;;
48205;SDS011;33995;48.202;16.260;2023-12-20T07:26:48;4.40;;;4.00;;
48205;SDS011;33995;48.202;16.260;2023-12-20T07:29:15;5.57;;;3.63;;
48205;SDS011;33995;48.202;16.260;2023-12-20T07:31:42;4.80;;;4.00;;
48205;SDS011;33995;48.202;16.260;2023-12-20T07:34:09;5.87;;;3.97;;
48205;SDS011;33995;48.202;16.260;2023-12-20T07:36:36;5.40;;;4.20;;
48205;SDS011;33995;48.202;16.260;2023-12-20T07:39:03;4.30;;;3.90;;
48205;SDS011;33995;48.202;16.260;2023-12-20T07:41:31;4.40;;;3.80;;
48205;SDS011;33995;48.202;16.260;2023-12-20T07:43:58;4.10;;;3.70;;
48205;SDS011;33995;48.202;16.260;2023-12-20T07:46:27;4.10;;;3.70;;
48205;SDS011;33995;48.202;16.260;2023-12-20T07:48:54;5.03;;;4.50;;
48205;SDS011;33995;48.202;16.260;2023-12-20T07:51:21;6.33;;;4.20;;
48205;SDS011;33995;48.202;16.260;2023-12-20T07:53:49;7.20;;;4.50;;
48205;SDS011;33995;48.202;16.260;2023-12-20T07:56:16;5.23;;;4.17;;
48205;SDS011;33995;48.202;16.260;2023-12-20T07:58:45;5.13;;;4.23;;
48205;SDS011;33995;48.202;16.260;2023-12-20T08:01:19;4.67;;;4.17;;
48205;SDS011;33995;48.202;16.260;2023-12-20T08:03:48;5.30;;;4.40;;
48205;SDS011;33995;48.202;16.260;2023-12-20T08:06:17;5.03;;;4.30;;
48205;SDS011;33995;48.202;16.260;2023-12-20T08:08:44;5.00;;;4.40;;
48205;SDS011;33995;48.202;16.260;2023-12-20T08:11:21;5.13;;;4.30;;
48205;SDS011;33995;48.202;16.260;2023-12-20T08:13:49;5.20;;;4.30;;
48205;SDS011;33995;48.202;16.260;2023-12-20T08:16:18;5.27;;;4.53;;
48205;SDS011;33995;48.202;16.260;2023-12-20T08:18:45;4.60;;;4.17;;
48205;SDS011;33995;48.202;16.260;2023-12-20T08:21:14;4.90;;;4.40;;
48205;SDS011;33995;48.202;16.260;2023-12-20T08:23:41;5.33;;;4.40;;
48205;SDS011;33995;48.202;16.260;2023-12-20T08:26:11;6.23;;;4.57;;
48205;SDS011;33995;48.202;16.260;2023-12-20T08:28:38;4.90;;;4.40;;
48205;SDS011;33995;48.202;16.260;2023-12-20T08:31:06;4.63;;;4.17;;
48205;SDS011;33995;48.202;16.260;2023-12-20T08:33:34;4.70;;;4.20;;
48205;SDS011;33995;48.202;16.260;2023-12-20T08:36:01;4.87;;;4.20;;
48205;SDS011;33995;48.202;16.260;2023-12-20T08:38:31;5.30;;;4.37;;
48205;SDS011;33995;48.202;16.260;2023-12-20T08:40:58;5.80;;;4.20;;
48205;SDS011;33995;48.202;16.260;2023-12-20T08:43:25;5.53;;;4.33;;
48205;SDS011;33995;48.202;16.260;2023-12-20T08:45:52;5.33;;;4.27;;
48205;SDS011;33995;48.202;16.260;2023-12-20T08:48:20;4.63;;;4.20;;
48205;SDS011;33995;48.202;16.260;2023-12-20T08:50:48;4.60;;;4.10;;
48205;SDS011;33995;48.202;16.260;2023-12-20T08:53:16;5.80;;;4.63;;
48205;SDS011;33995;48.202;16.260;2023-12-20T08:55:44;5.80;;;4.47;;
48205;SDS011;33995;48.202;16.260;2023-12-20T08:58:12;4.33;;;3.90;;
48205;SDS011;33995;48.202;16.260;2023-12-20T09:00:39;5.23;;;4.73;;
48205;SDS011;33995;48.202;16.260;2023-12-20T09:03:07;4.53;;;4.07;;
48205;SDS011;33995;48.202;16.260;2023-12-20T09:05:34;4.57;;;4.03;;
48205;SDS011;33995;48.202;16.260;2023-12-20T09:08:01;4.27;;;3.87;;
48205;SDS011;33995;48.202;16.260;2023-12-20T09:10:29;4.40;;;4.00;;
48205;SDS011;33995;48.202;16.260;2023-12-20T09:12:56;5.90;;;4.07;;
48205;SDS011;33995;48.202;16.260;2023-12-20T09:15:24;4.77;;;4.20;;
48205;SDS011;33995;48.202;16.260;2023-12-20T09:17:52;4.87;;;3.63;;
48205;SDS011;33995;48.202;16.260;2023-12-20T09:20:20;5.17;;;3.30;;
48205;SDS011;33995;48.202;16.260;2023-12-20T09:22:47;4.00;;;3.40;;
48205;SDS011;33995;48.202;16.260;2023-12-20T09:25:14;3.60;;;3.30;;
48205;SDS011;33995;48.202;16.260;2023-12-20T09:27:43;4.17;;;2.80;;
48205;SDS011;33995;48.202;16.260;2023-12-20T09:30:11;3.20;;;2.90;;
48205;SDS011;33995;48.202;16.260;2023-12-20T09:32:50;3.23;;;2.90;;
48205;SDS011;33995;48.202;16.260;2023-12-20T09:35:18;3.60;;;2.70;;
48205;SDS011;33995;48.202;16.260;2023-12-20T09:37:45;2.53;;;2.30;;
48205;SDS011;33995;48.202;16.260;2023-12-20T09:40:13;2.60;;;2.40;;
48205;SDS011;33995;48.202;16.260;2023-12-20T09:42:57;2.73;;;2.50;;
48205;SDS011;33995;48.202;16.260;2023-12-20T09:45:25;2.80;;;2.50;;
48205;SDS011;33995;48.202;16.260;2023-12-20T09:47:53;5.77;;;4.33;;
48205;SDS011;33995;48.202;16.260;2023-12-20T09:50:21;5.77;;;4.07;;
48205;SDS011;33995;48.202;16.260;2023-12-20T09:52:53;3.90;;;3.50;;
48205;SDS011;33995;48.202;16.260;2023-12-20T09:55:23;11.23;;;5.77;;
48205;SDS011;33995;48.202;16.260;2023-12-20T09:57:52;9.07;;;5.23;;
48205;SDS011;33995;48.202;16.260;2023-12-20T10:00:19;15.33;;;9.50;;
48205;SDS011;33995;48.202;16.260;2023-12-20T10:02:59;8.73;;;6.93;;
48205;SDS011;33995;48.202;16.260;2023-12-20T10:05:28;9.07;;;6.73;;
48205;SDS011;33995;48.202;16.260;2023-12-20T10:07:59;14.00;;;9.77;;
48205;SDS011;33995;48.202;16.260;2023-12-20T10:10:28;9.77;;;7.20;;
48205;SDS011;33995;48.202;16.260;2023-12-20T10:13:10;5.70;;;4.83;;
48205;SDS011;33995;48.202;16.260;2023-12-20T10:15:38;7.50;;;5.97;;
48205;SDS011;33995;48.202;16.260;2023-12-20T10:18:08;6.17;;;5.57;;
48205;SDS011;33995;48.202;16.260;2023-12-20T10:20:35;7.40;;;6.70;;
48205;SDS011;33995;48.202;16.260;2023-12-20T10:23:03;5.60;;;4.93;;
48205;SDS011;33995;48.202;16.260;2023-12-20T10:25:30;6.23;;;5.63;;
48205;SDS011;33995;48.202;16.260;2023-12-20T10:28:08;6.10;;;5.60;;
48205;SDS011;33995;48.202;16.260;2023-12-20T10:30:39;4.10;;;3.80;;
48205;SDS011;33995;48.202;16.260;2023-12-20T10:33:07;3.80;;;3.50;;
48205;SDS011;33995;48.202;16.260;2023-12-20T10:35:39;4.10;;;3.70;;
48205;SDS011;33995;48.202;16.260;2023-12-20T10:38:11;3.70;;;3.33;;
48205;SDS011;33995;48.202;16.260;2023-12-20T10:40:40;3.50;;;3.20;;
48205;SDS011;33995;48.202;16.260;2023-12-20T10:43:09;5.00;;;4.33;;
48205;SDS011;33995;48.202;16.260;2023-12-20T10:45:37;4.20;;;3.73;;
48205;SDS011;33995;48.202;16.260;2023-12-20T10:48:05;3.83;;;3.53;;
48205;SDS011;33995;48.202;16.260;2023-12-20T10:50:32;8.93;;;7.17;;
48205;SDS011;33995;48.202;16.260;2023-12-20T10:53:02;5.10;;;4.70;;
48205;SDS011;33995;48.202;16.260;2023-12-20T10:55:29;4.50;;;4.10;;
48205;SDS011;33995;48.202;16.260;2023-12-20T10:58:00;4.63;;;4.13;;
48205;SDS011;33995;48.202;16.260;2023-12-20T11:00:29;4.00;;;3.70;;
48205;SDS011;33995;48.202;16.260;2023-12-20T11:03:01;4.20;;;3.80;;
48205;SDS011;33995;48.202;16.260;2023-12-20T11:08:32;4.27;;;3.87;;
48205;SDS011;33995;48.202;16.260;2023-12-20T11:11:07;4.10;;;3.00;;
48205;SDS011;33995;48.202;16.260;2023-12-20T11:16:32;4.37;;;3.97;;
48205;SDS011;33995;48.202;16.260;2023-12-20T11:19:13;3.83;;;3.43;;
48205;SDS011;33995;48.202;16.260;2023-12-20T11:21:41;3.03;;;2.80;;
48205;SDS011;33995;48.202;16.260;2023-12-20T11:24:09;3.20;;;2.90;;
48205;SDS011;33995;48.202;16.260;2023-12-20T11:26:36;3.10;;;2.80;;
48205;SDS011;33995;48.202;16.260;2023-12-20T11:35:00;5.03;;;4.00;;
48205;SDS011;33995;48.202;16.260;2023-12-20T11:37:43;3.83;;;3.53;;
48205;SDS011;33995;48.202;16.260;2023-12-20T11:40:12;3.30;;;3.00;;
48205;SDS011;33995;48.202;16.260;2023-12-20T11:42:44;2.90;;;2.60;;
48205;SDS011;33995;48.202;16.260;2023-12-20T11:45:15;4.70;;;3.37;;
48205;SDS011;33995;48.202;16.260;2023-12-20T11:47:48;5.53;;;3.30;;
48205;SDS011;33995;48.202;16.260;2023-12-20T11:50:17;4.63;;;4.23;;
48205;SDS011;33995;48.202;16.260;2023-12-20T11:52:45;3.37;;;3.07;;
48205;SDS011;33995;48.202;16.260;2023-12-20T11:55:13;3.93;;;3.53;;
48205;SDS011;33995;48.202;16.260;2023-12-20T11:57:41;6.47;;;5.87;;
48205;SDS011;33995;48.202;16.260;2023-12-20T12:00:10;4.97;;;4.57;;
48205;SDS011;33995;48.202;16.260;2023-12-20T12:02:37;4.83;;;4.40;;
48205;SDS011;33995;48.202;16.260;2023-12-20T12:05:04;7.17;;;6.47;;
48205;SDS011;33995;48.202;16.260;2023-12-20T12:07:33;5.87;;;5.30;;
48205;SDS011;33995;48.202;16.260;2023-12-20T12:10:01;3.60;;;3.30;;
48205;SDS011;33995;48.202;16.260;2023-12-20T12:12:30;3.30;;;3.00;;
48205;SDS011;33995;48.202;16.260;2023-12-20T12:14:58;3.80;;;3.50;;
48205;SDS011;33995;48.202;16.260;2023-12-20T12:17:26;3.43;;;3.13;;
48205;SDS011;33995;48.202;16.260;2023-12-20T12:20:01;3.63;;;2.80;;
48205;SDS011;33995;48.202;16.260;2023-12-20T12:22:32;2.93;;;2.73;;
48205;SDS011;33995;48.202;16.260;2023-12-20T12:25:08;4.07;;;2.83;;
48205;SDS011;33995;48.202;16.260;2023-12-20T12:27:41;2.97;;;2.70;;
48205;SDS011;33995;48.202;16.260;2023-12-20T12:30:12;2.80;;;2.57;;
48205;SDS011;33995;48.202;16.260;2023-12-20T12:32:40;4.47;;;4.07;;
48205;SDS011;33995;48.202;16.260;2023-12-20T12:35:07;2.87;;;2.60;;
48205;SDS011;33995;48.202;16.260;2023-12-20T12:37:39;2.73;;;2.53;;
48205;SDS011;33995;48.202;16.260;2023-12-20T12:40:10;3.57;;;3.27;;
48205;SDS011;33995;48.202;16.260;2023-12-20T12:42:40;2.50;;;2.30;;
48205;SDS011;33995;48.202;16.260;2023-12-20T12:45:09;2.80;;;2.47;;
48205;SDS011;33995;48.202;16.260;2023-12-20T12:47:40;4.80;;;4.23;;
48205;SDS011;33995;48.202;16.260;2023-12-20T12:50:07;3.43;;;3.13;;
48205;SDS011;33995;48.202;16.260;2023-12-20T12:52:35;3.20;;;2.90;;
48205;SDS011;33995;48.202;16.260;2023-12-20T12:55:02;2.73;;;2.53;;
48205;SDS011;33995;48.202;16.260;2023-12-20T12:57:31;3.43;;;3.13;;
48205;SDS011;33995;48.202;16.260;2023-12-20T13:00:00;4.50;;;2.90;;
48205;SDS011;33995;48.202;16.260;2023-12-20T13:02:27;3.37;;;3.07;;
48205;SDS011;33995;48.202;16.260;2023-12-20T13:04:54;3.07;;;2.87;;
48205;SDS011;33995;48.202;16.260;2023-12-20T13:07:21;2.50;;;2.30;;
48205;SDS011;33995;48.202;16.260;2023-12-20T13:09:48;3.43;;;2.50;;
48205;SDS011;33995;48.202;16.260;2023-12-20T13:12:15;2.30;;;2.10;;
48205;SDS011;33995;48.202;16.260;2023-12-20T13:14:42;2.43;;;2.23;;
48205;SDS011;33995;48.202;16.260;2023-12-20T13:17:09;2.30;;;2.10;;
48205;SDS011;33995;48.202;16.260;2023-12-20T13:19:37;3.63;;;2.20;;
48205;SDS011;33995;48.202;16.260;2023-12-20T13:22:04;2.80;;;2.60;;
48205;SDS011;33995;48.202;16.260;2023-12-20T13:24:31;3.47;;;3.17;;
48205;SDS011;33995;48.202;16.260;2023-12-20T13:26:58;4.07;;;3.67;;
48205;SDS011;33995;48.202;16.260;2023-12-20T13:29:25;3.13;;;2.83;;
48205;SDS011;33995;48.202;16.260;2023-12-20T13:31:55;3.07;;;2.87;;
48205;SDS011;33995;48.202;16.260;2023-12-20T13:34:24;3.03;;;2.60;;
48205;SDS011;33995;48.202;16.260;2023-12-20T13:36:51;3.87;;;2.40;;
48205;SDS011;33995;48.202;16.260;2023-12-20T13:39:18;3.17;;;2.87;;
48205;SDS011;33995;48.202;16.260;2023-12-20T13:41:45;3.97;;;3.57;;
48205;SDS011;33995;48.202;16.260;2023-12-20T13:44:12;4.60;;;3.83;;
48205;SDS011;33995;48.202;16.260;2023-12-20T13:46:40;3.63;;;2.90;;
48205;SDS011;33995;48.202;16.260;2023-12-20T13:49:08;3.43;;;3.13;;
48205;SDS011;33995;48.202;16.260;2023-12-20T13:51:35;3.97;;;3.60;;
48205;SDS011;33995;48.202;16.260;2023-12-20T13:54:02;3.60;;;3.17;;
48205;SDS011;33995;48.202;16.260;2023-12-20T13:56:29;3.13;;;2.83;;
48205;SDS011;33995;48.202;16.260;2023-12-20T13:58:57;3.30;;;3.00;;
48205;SDS011;33995;48.202;16.260;2023-12-20T14:01:26;5.00;;;2.73;;
48205;SDS011;33995;48.202;16.260;2023-12-20T14:03:53;3.13;;;2.70;;
48205;SDS011;33995;48.202;16.260;2023-12-20T14:06:20;2.80;;;2.60;;
48205;SDS011;33995;48.202;16.260;2023-12-20T14:08:47;3.80;;;3.40;;
48205;SDS011;33995;48.202;16.260;2023-12-20T14:11:14;3.70;;;3.40;;
48205;SDS011;33995;48.202;16.260;2023-12-20T14:13:42;4.17;;;3.70;;
48205;SDS011;33995;48.202;16.260;2023-12-20T14:16:09;2.60;;;2.40;;
48205;SDS011;33995;48.202;16.260;2023-12-20T14:18:37;2.93;;;2.50;;
48205;SDS011;33995;48.202;16.260;2023-12-20T14:21:06;2.93;;;2.03;;
48205;SDS011;33995;48.202;16.260;2023-12-20T14:23:33;2.40;;;2.20;;
48205;SDS011;33995;48.202;16.260;2023-12-20T14:26:00;2.37;;;2.17;;
48205;SDS011;33995;48.202;16.260;2023-12-20T14:28:28;3.43;;;3.13;;
48205;SDS011;33995;48.202;16.260;2023-12-20T14:30:55;3.10;;;2.80;;
48205;SDS011;33995;48.202;16.260;2023-12-20T14:33:23;3.00;;;2.80;;
48205;SDS011;33995;48.202;16.260;2023-12-20T14:35:50;4.70;;;2.87;;
48205;SDS011;33995;48.202;16.260;2023-12-20T14:38:17;5.77;;;4.47;;
48205;SDS011;33995;48.202;16.260;2023-12-20T14:40:44;3.03;;;2.80;;
48205;SDS011;33995;48.202;16.260;2023-12-20T14:43:11;3.77;;;2.70;;
48205;SDS011;33995;48.202;16.260;2023-12-20T14:45:39;2.40;;;2.20;;
48205;SDS011;33995;48.202;16.260;2023-12-20T14:48:06;2.23;;;2.03;;